Time;durP1;ratioP1;P1;durP2;ratioP2;P2;SDS_P1;SDS_P2;PMS_P1;PMS_P2;Temp;Humidity;BMP_temperature;BMP_pressure;BME280_temperature;BME280_humidity;BME280_pressure;Samples;Min_cycle;Max_cycle;Signal;HPM_P1;HPM_P2
2022/09/19 00:01:19;;;;;;;9.33;3.93;;;8.50;90.20;;;;;;5050836;28;20438;-74
2022/09/19 00:03:46;;;;;;;2.20;1.70;;;8.50;91.90;;;;;;5045689;28;20423;-74
2022/09/19 00:06:15;;;;;;;1.87;1.50;;;8.50;94.40;;;;;;5048781;28;20435;-74
2022/09/19 00:08:42;;;;;;;3.70;1.60;;;8.50;96.90;;;;;;5044887;28;20427;-74
2022/09/19 00:11:09;;;;;;;2.70;2.00;;;8.50;95.60;;;;;;5048646;28;20498;-74
2022/09/19 00:13:38;;;;;;;5.07;2.37;;;8.50;95.80;;;;;;5039842;28;20451;-74
2022/09/19 00:16:04;;;;;;;3.33;2.37;;;8.40;97.60;;;;;;5053163;28;20448;-74
2022/09/19 00:18:30;;;;;;;3.47;2.50;;;8.50;98.80;;;;;;5040735;28;20428;-74
2022/09/19 00:20:55;;;;;;;6.97;2.63;;;8.50;98.80;;;;;;5048583;28;20188;-74
2022/09/19 00:26:10;;;;;;;5.77;2.10;;;8.30;98.70;;;;;;5042499;28;20257;-74
2022/09/19 00:28:37;;;;;;;4.27;1.97;;;8.60;93.10;;;;;;5046222;28;20948;-73
2022/09/19 00:31:03;;;;;;;2.00;1.80;;;8.50;91.60;;;;;;5050188;28;20463;-74
2022/09/19 00:33:31;;;;;;;3.30;1.90;;;8.50;94.50;;;;;;5044671;28;20869;-74
2022/09/19 00:35:59;;;;;;;6.43;1.93;;;8.40;97.60;;;;;;5048282;28;20408;-74
2022/09/19 00:38:27;;;;;;;2.40;1.87;;;8.40;98.70;;;;;;5046890;28;20918;-74
2022/09/19 00:40:54;;;;;;;1.67;1.57;;;8.40;95.50;;;;;;5049447;28;20430;-74
2022/09/19 00:43:21;;;;;;;4.40;1.87;;;8.40;96.70;;;;;;5043361;28;20443;-74
2022/09/19 00:45:47;;;;;;;2.10;1.70;;;8.30;95.40;;;;;;5051594;28;20507;-74
2022/09/19 00:48:15;;;;;;;5.97;2.63;;;8.40;98.80;;;;;;5052066;28;20547;-74
2022/09/19 00:50:44;;;;;;;4.03;2.30;;;8.40;98.80;;;;;;5046849;28;20184;-74
2022/09/19 00:53:15;;;;;;;2.60;1.60;;;8.40;98.80;;;;;;5044206;28;20460;-73
2022/09/19 00:55:41;;;;;;;2.20;1.90;;;8.40;99.90;;;;;;5049173;28;20410;-74
2022/09/19 00:58:28;;;;;;;11.00;2.20;;;8.50;99.90;;;;;;5043708;28;20451;-74
2022/09/19 01:00:55;;;;;;;6.20;2.23;;;8.40;98.80;;;;;;5045104;28;20427;-74
2022/09/19 01:03:24;;;;;;;2.40;1.80;;;8.00;99.90;;;;;;5040748;28;20432;-75
2022/09/19 01:06:15;;;;;;;3.07;2.40;;;8.40;99.90;;;;;;5049255;28;20407;-75
2022/09/19 01:09:07;;;;;;;3.07;1.90;;;8.40;98.70;;;;;;5044453;28;20959;-74
2022/09/19 01:11:57;;;;;;;4.90;2.20;;;8.30;98.70;;;;;;5044397;28;20455;-74
2022/09/19 01:14:39;;;;;;;4.03;2.23;;;8.30;99.50;;;;;;5048472;28;20446;-73
2022/09/19 01:17:35;;;;;;;3.00;1.90;;;8.20;98.70;;;;;;5029212;28;20750;-74
2022/09/19 01:20:35;;;;;;;4.03;2.33;;;8.20;98.70;;;;;;5040901;28;20439;-73
2022/09/19 01:23:32;;;;;;;4.90;2.90;;;8.20;98.70;;;;;;5031802;28;20428;-74
2022/09/19 01:26:19;;;;;;;14.80;6.70;;;8.10;98.60;;;;;;5043920;28;20454;-74
2022/09/19 01:29:07;;;;;;;5.80;4.03;;;8.10;98.60;;;;;;5043463;28;20447;-73
2022/09/19 01:31:36;;;;;;;4.03;2.53;;;8.10;99.90;;;;;;5048533;28;20592;-74
2022/09/19 01:34:12;;;;;;;2.83;2.13;;;8.20;99.90;;;;;;5045010;28;20518;-74
2022/09/19 01:36:43;;;;;;;3.00;2.20;;;8.30;99.90;;;;;;5044015;28;20454;-74
2022/09/19 01:39:10;;;;;;;8.47;2.00;;;8.40;99.90;;;;;;5045763;28;20427;-74
2022/09/19 01:41:36;;;;;;;3.40;2.30;;;8.50;99.90;;;;;;5048211;28;20468;-74
2022/09/19 01:44:05;;;;;;;3.20;2.20;;;8.50;98.80;;;;;;5040221;28;20447;-74
2022/09/19 01:46:48;;;;;;;4.10;1.93;;;8.50;99.90;;;;;;5052364;28;20651;-74
2022/09/19 01:49:51;;;;;;;2.47;1.90;;;8.60;99.90;;;;;;5037253;28;20439;-74
2022/09/19 01:52:41;;;;;;;4.57;1.80;;;8.60;98.90;;;;;;5038190;28;20459;-74
2022/09/19 01:55:22;;;;;;;2.93;1.83;;;8.60;98.80;;;;;;5034447;28;20444;-74
2022/09/19 01:58:34;;;;;;;3.27;1.70;;;8.60;99.00;;;;;;5039326;28;20447;-74
2022/09/19 02:01:06;;;;;;;3.13;1.70;;;8.70;98.90;;;;;;5025495;28;20428;-74
2022/09/19 02:03:47;;;;;;;2.33;1.77;;;8.70;98.90;;;;;;5023852;28;20827;-74
2022/09/19 02:06:37;;;;;;;3.63;1.80;;;8.80;98.90;;;;;;5040413;28;20447;-75
2022/09/19 02:09:18;;;;;;;3.33;1.93;;;8.80;98.90;;;;;;5034850;28;20759;-74
2022/09/19 02:11:45;;;;;;;5.23;1.90;;;8.80;98.90;;;;;;5045408;28;20459;-74
2022/09/19 02:14:17;;;;;;;3.67;1.80;;;8.80;98.90;;;;;;5054693;28;20407;-73
2022/09/19 02:17:03;;;;;;;1.60;1.50;;;8.70;97.00;;;;;;5054340;28;20451;-74
2022/09/19 02:19:49;;;;;;;1.50;1.40;;;8.60;98.90;;;;;;5050267;28;20457;-73
2022/09/19 02:22:33;;;;;;;2.43;1.60;;;8.60;96.50;;;;;;5052358;28;20435;-74
2022/09/19 02:25:05;;;;;;;2.90;1.67;;;8.50;97.90;;;;;;5052492;28;20427;-74
2022/09/19 02:27:37;;;;;;;1.60;1.43;;;8.40;98.70;;;;;;5054973;28;20463;-73
2022/09/19 02:30:08;;;;;;;3.10;1.70;;;8.30;98.70;;;;;;5052083;28;20439;-74
2022/09/19 02:32:35;;;;;;;2.63;1.80;;;8.30;98.70;;;;;;5040906;28;20456;-74
2022/09/19 02:35:01;;;;;;;1.93;1.50;;;8.30;98.80;;;;;;5053128;28;20451;-74
2022/09/19 02:37:33;;;;;;;2.13;1.47;;;8.40;98.80;;;;;;5046022;28;20947;-74
2022/09/19 02:40:35;;;;;;;1.73;1.60;;;8.50;98.80;;;;;;5054771;28;20446;-74
2022/09/19 02:43:05;;;;;;;1.90;1.60;;;8.60;99.90;;;;;;5040552;28;20457;-73
2022/09/19 02:45:37;;;;;;;2.13;1.60;;;8.60;99.90;;;;;;5059267;28;20905;-74
2022/09/19 02:48:33;;;;;;;1.73;1.47;;;8.70;98.90;;;;;;5045885;28;20451;-75
2022/09/19 02:51:17;;;;;;;5.83;1.90;;;8.80;99.00;;;;;;5036653;28;20566;-74
2022/09/19 02:53:47;;;;;;;2.50;1.63;;;8.70;98.90;;;;;;5051607;28;20572;-74
2022/09/19 02:56:16;;;;;;;5.53;1.43;;;8.80;98.90;;;;;;5050523;28;20950;-74
2022/09/19 02:58:47;;;;;;;2.83;1.50;;;8.80;99.00;;;;;;5051632;28;20962;-74
2022/09/19 03:01:20;;;;;;;3.00;1.60;;;8.90;99.20;;;;;;5050264;28;20427;-74
2022/09/19 03:07:13;;;;;;;5.50;2.10;;;8.90;99.00;;;;;;5051134;28;20472;-74
2022/09/19 03:09:42;;;;;;;6.40;3.70;;;9.00;99.00;;;;;;5051167;28;20419;-74
2022/09/19 03:12:18;;;;;;;6.07;3.00;;;9.00;99.00;;;;;;5047468;28;20907;-74
2022/09/19 03:14:45;;;;;;;8.37;2.20;;;9.10;99.10;;;;;;5043617;28;20440;-74
2022/09/19 03:17:16;;;;;;;2.17;1.63;;;9.10;99.10;;;;;;5057374;28;20733;-72
2022/09/19 03:19:47;;;;;;;3.90;1.70;;;9.10;99.10;;;;;;5044158;28;20420;-74
2022/09/19 03:22:13;;;;;;;2.63;1.60;;;9.10;99.10;;;;;;5046272;28;21172;-74
2022/09/19 03:24:40;;;;;;;2.20;1.60;;;9.20;99.10;;;;;;5048487;28;20492;-72
2022/09/19 03:27:06;;;;;;;3.43;1.87;;;9.30;99.20;;;;;;5047112;28;20237;-74
2022/09/19 03:29:33;;;;;;;3.00;2.03;;;9.20;98.00;;;;;;5047318;28;20451;-72
2022/09/19 03:31:58;;;;;;;2.83;2.10;;;9.30;98.20;;;;;;5048897;28;20725;-74
2022/09/19 03:34:24;;;;;;;2.20;1.90;;;9.20;98.10;;;;;;5048253;28;20515;-74
2022/09/19 03:36:49;;;;;;;6.90;1.70;;;9.30;99.10;;;;;;5049545;28;20276;-74
2022/09/19 03:39:15;;;;;;;3.80;1.50;;;9.30;99.20;;;;;;5044426;28;20195;-73
2022/09/19 03:41:41;;;;;;;4.43;1.90;;;9.30;99.10;;;;;;5050895;28;20250;-75
2022/09/19 03:44:07;;;;;;;7.07;1.87;;;9.30;98.60;;;;;;5040335;28;20742;-73
2022/09/19 03:46:33;;;;;;;3.70;2.20;;;9.40;96.20;;;;;;5054783;28;20531;-74
2022/09/19 03:49:00;;;;;;;3.70;1.80;;;9.20;95.90;;;;;;5040723;28;20181;-74
2022/09/19 03:51:26;;;;;;;3.37;1.90;;;9.40;95.30;;;;;;5048934;28;20197;-75
2022/09/19 03:53:52;;;;;;;5.90;2.10;;;9.40;93.90;;;;;;5047572;28;20477;-74
2022/09/19 03:56:18;;;;;;;4.80;2.60;;;9.30;92.40;;;;;;5050903;28;20543;-75
2022/09/19 03:58:44;;;;;;;3.80;3.00;;;9.30;91.30;;;;;;5047964;28;20256;-73
2022/09/19 04:01:12;;;;;;;6.27;3.03;;;9.30;93.40;;;;;;5044130;28;20328;-74
2022/09/19 04:03:38;;;;;;;4.90;3.27;;;9.30;94.20;;;;;;5048260;28;20435;-74
2022/09/19 04:06:04;;;;;;;4.07;2.33;;;9.30;94.20;;;;;;5050623;28;20416;-73
2022/09/19 04:08:30;;;;;;;5.03;2.30;;;9.30;95.00;;;;;;5045348;28;20432;-73
2022/09/19 04:10:56;;;;;;;4.50;2.33;;;9.40;95.40;;;;;;5050487;28;20327;-73
2022/09/19 04:13:22;;;;;;;4.70;2.47;;;9.40;93.80;;;;;;5041648;28;20523;-74
2022/09/19 04:15:48;;;;;;;4.13;1.90;;;9.40;93.90;;;;;;5044143;28;20224;-74
2022/09/19 04:18:15;;;;;;;6.80;2.70;;;9.40;91.60;;;;;;5039473;28;20535;-74
2022/09/19 04:20:40;;;;;;;2.67;1.70;;;9.50;95.60;;;;;;5042261;28;20884;-73
2022/09/19 04:23:06;;;;;;;3.10;2.30;;;9.50;95.00;;;;;;5046264;28;20510;-73
2022/09/19 04:25:35;;;;;;;4.47;3.40;;;9.60;94.30;;;;;;5050049;28;20664;-74
2022/09/19 04:28:05;;;;;;;8.63;5.10;;;9.60;94.10;;;;;;5047121;28;20622;-74
2022/09/19 04:30:32;;;;;;;4.80;3.40;;;9.60;92.70;;;;;;5046542;28;20515;-74
2022/09/19 04:33:00;;;;;;;4.90;3.30;;;9.60;91.70;;;;;;5044241;28;20455;-74
2022/09/19 04:35:26;;;;;;;26.13;14.47;;;9.60;93.10;;;;;;5049988;28;20893;-74
2022/09/19 04:37:51;;;;;;;9.47;4.43;;;9.60;92.20;;;;;;5045593;28;20682;-73
2022/09/19 04:40:18;;;;;;;5.90;2.80;;;9.30;94.30;;;;;;5050235;28;20200;-73
2022/09/19 04:42:45;;;;;;;6.77;3.00;;;9.70;95.10;;;;;;5044480;28;20679;-73
2022/09/19 04:45:13;;;;;;;3.73;1.60;;;9.70;93.00;;;;;;5044409;28;20415;-75
2022/09/19 04:47:38;;;;;;;6.10;2.10;;;9.80;96.00;;;;;;5058186;28;20456;-74
2022/09/19 04:50:08;;;;;;;3.80;1.57;;;9.80;94.20;;;;;;5045137;28;20449;-73
2022/09/19 04:52:34;;;;;;;4.60;1.70;;;9.80;92.10;;;;;;5043838;28;20627;-74
2022/09/19 04:55:00;;;;;;;2.30;1.47;;;9.80;92.10;;;;;;5034694;28;20428;-74
2022/09/19 04:57:26;;;;;;;9.77;1.70;;;9.80;84.10;;;;;;5038639;28;20934;-75
2022/09/19 04:59:54;;;;;;;4.70;1.70;;;9.80;85.70;;;;;;5048746;28;20230;-74
2022/09/19 05:02:20;;;;;;;2.53;1.50;;;9.80;85.00;;;;;;5030497;28;20843;-74
2022/09/19 05:04:46;;;;;;;3.13;1.57;;;9.80;85.90;;;;;;5047819;28;20491;-74
2022/09/19 05:07:13;;;;;;;2.20;1.80;;;9.90;87.80;;;;;;5046561;28;20269;-73
2022/09/19 05:09:41;;;;;;;4.23;1.67;;;9.90;89.00;;;;;;5048784;28;20172;-74
2022/09/19 05:12:08;;;;;;;5.13;1.53;;;9.90;85.70;;;;;;5048998;28;20474;-73
2022/09/19 05:14:34;;;;;;;3.07;1.77;;;10.00;80.90;;;;;;5045223;28;20444;-74
2022/09/19 05:17:00;;;;;;;4.33;1.40;;;9.90;73.10;;;;;;5048161;28;20492;-74
2022/09/19 05:19:26;;;;;;;3.50;1.57;;;9.90;69.70;;;;;;5039760;28;20794;-74
2022/09/19 05:21:51;;;;;;;6.70;1.80;;;9.90;79.50;;;;;;5048384;28;20716;-74
2022/09/19 05:24:18;;;;;;;4.90;1.50;;;9.90;77.10;;;;;;5044532;28;20216;-74
2022/09/19 05:26:46;;;;;;;4.03;1.70;;;9.90;73.90;;;;;;5049245;28;20280;-74
2022/09/19 05:29:13;;;;;;;4.80;1.93;;;9.90;69.10;;;;;;5046112;28;20456;-73
2022/09/19 05:31:45;;;;;;;3.10;1.90;;;10.00;68.30;;;;;;5047714;28;20448;-74
2022/09/19 05:34:11;;;;;;;3.30;1.40;;;10.00;72.00;;;;;;5043147;28;20476;-74
2022/09/19 05:36:37;;;;;;;7.07;1.70;;;10.00;67.80;;;;;;5048633;28;20427;-73
2022/09/19 05:39:03;;;;;;;4.78;1.92;;;10.20;72.40;;;;;;5043272;28;20423;-75
2022/09/19 05:41:28;;;;;;;4.50;1.70;;;10.30;74.70;;;;;;5036782;28;20188;-75
2022/09/19 05:43:54;;;;;;;2.63;1.40;;;10.40;71.30;;;;;;5037456;28;20773;-75
2022/09/19 05:46:20;;;;;;;7.03;1.50;;;10.30;68.90;;;;;;5035886;28;20240;-75
2022/09/19 05:48:49;;;;;;;4.80;2.70;;;10.30;63.30;;;;;;5031416;28;20204;-75
2022/09/19 05:51:14;;;;;;;4.90;1.50;;;10.20;64.90;;;;;;5042213;28;20498;-76
2022/09/19 05:53:52;;;;;;;3.03;1.80;;;10.20;65.20;;;;;;5040032;28;20468;-75
2022/09/19 05:56:17;;;;;;;4.13;1.60;;;10.30;75.90;;;;;;5044837;28;20242;-75
2022/09/19 05:58:43;;;;;;;6.67;1.63;;;10.30;65.40;;;;;;5042275;28;20420;-76
2022/09/19 06:01:10;;;;;;;6.27;1.83;;;10.40;68.50;;;;;;5048594;28;20585;-75
2022/09/19 06:03:38;;;;;;;3.40;1.50;;;10.50;61.70;;;;;;5035229;28;20359;-73
2022/09/19 06:06:18;;;;;;;10.47;1.97;;;10.40;49.80;;;;;;5035654;28;20444;-75
2022/09/19 06:08:46;;;;;;;9.27;1.80;;;10.40;55.50;;;;;;5029813;28;20438;-74
2022/09/19 06:11:12;;;;;;;10.63;1.80;;;10.50;70.00;;;;;;5039665;28;20682;-75
2022/09/19 06:16:22;;;;;;;4.20;2.00;;;10.60;55.20;;;;;;5046206;28;20475;-76
2022/09/19 06:18:48;;;;;;;3.20;1.80;;;10.60;58.20;;;;;;5034339;28;20425;-75
2022/09/19 06:21:14;;;;;;;5.00;1.90;;;10.80;53.90;;;;;;5047523;28;20201;-74
2022/09/19 06:23:40;;;;;;;6.43;1.87;;;10.70;52.60;;;;;;5040113;28;20431;-75
2022/09/19 06:26:07;;;;;;;4.23;1.80;;;10.70;49.20;;;;;;5041437;28;20424;-75
2022/09/19 06:28:32;;;;;;;5.30;2.00;;;10.70;54.40;;;;;;5040257;28;20593;-74
2022/09/19 06:31:03;;;;;;;5.53;1.60;;;10.80;59.50;;;;;;5033766;28;20522;-74
2022/09/19 06:33:31;;;;;;;5.50;1.70;;;10.80;46.70;;;;;;5037240;28;20201;-74
2022/09/19 06:35:59;;;;;;;2.90;1.50;;;10.80;55.20;;;;;;5047786;28;20492;-76
2022/09/19 06:38:25;;;;;;;10.47;2.00;;;10.90;57.30;;;;;;5044289;28;20447;-74
2022/09/19 06:40:51;;;;;;;6.00;2.00;;;10.80;38.70;;;;;;5042224;28;20471;-75
2022/09/19 06:43:17;;;;;;;6.37;2.20;;;10.80;55.70;;;;;;5039544;28;21012;-74
2022/09/19 06:45:42;;;;;;;7.03;2.47;;;10.90;56.20;;;;;;5043357;28;20486;-75
2022/09/19 06:48:09;;;;;;;6.20;2.33;;;11.00;47.50;;;;;;5048628;28;20216;-75
2022/09/19 06:50:35;;;;;;;7.17;1.60;;;11.10;43.50;;;;;;5047921;28;20648;-75
2022/09/19 06:53:01;;;;;;;5.47;1.97;;;11.20;43.80;;;;;;5046823;28;20463;-75
2022/09/19 06:55:28;;;;;;;4.33;1.90;;;11.10;38.90;;;;;;5051289;28;20494;-75
2022/09/19 06:57:58;;;;;;;8.27;2.10;;;11.10;38.80;;;;;;5047187;28;20568;-74
2022/09/19 07:00:26;;;;;;;4.70;1.67;;;11.10;38.90;;;;;;5044668;28;20467;-75
2022/09/19 07:03:05;;;;;;;4.90;2.50;;;11.20;40.50;;;;;;5050614;28;20957;-75
2022/09/19 07:05:32;;;;;;;9.40;2.70;;;11.20;38.90;;;;;;5049441;28;20439;-74
2022/09/19 07:07:58;;;;;;;8.03;1.90;;;11.30;39.00;;;;;;5043144;28;20538;-75
2022/09/19 07:10:23;;;;;;;11.07;2.17;;;11.40;39.10;;;;;;5032192;28;20441;-76
2022/09/19 07:12:52;;;;;;;8.27;3.27;;;11.50;39.30;;;;;;5040912;28;20765;-76
2022/09/19 07:15:19;;;;;;;8.50;2.30;;;11.70;39.40;;;;;;5042185;28;20224;-73
2022/09/19 07:17:44;;;;;;;10.53;2.10;;;11.90;39.50;;;;;;5044769;28;20483;-76
2022/09/19 07:20:10;;;;;;;6.00;2.30;;;12.10;39.70;;;;;;5048263;28;21024;-75
2022/09/19 07:22:35;;;;;;;5.93;2.00;;;12.20;21.70;;;;;;5052666;28;20550;-76
2022/09/19 07:25:01;;;;;;;6.33;2.30;;;12.20;25.60;;;;;;5054437;28;20231;-75
2022/09/19 07:27:26;;;;;;;7.67;2.33;;;12.30;17.70;;;;;;5059201;28;20676;-75
2022/09/19 07:29:52;;;;;;;7.23;2.27;;;12.30;20.30;;;;;;5048844;28;20178;-76
2022/09/19 07:32:17;;;;;;;8.13;2.60;;;12.50;27.90;;;;;;5052755;28;20280;-75
2022/09/19 07:34:44;;;;;;;8.30;2.30;;;12.60;19.10;;;;;;5048887;28;20247;-76
2022/09/19 07:37:10;;;;;;;11.87;2.40;;;12.70;12.60;;;;;;5050528;28;20272;-77
2022/09/19 07:39:35;;;;;;;5.03;2.03;;;13.00;18.20;;;;;;5042163;28;20573;-76
2022/09/19 07:42:01;;;;;;;9.27;2.30;;;13.10;8.30;;;;;;5047055;28;20192;-76
2022/09/19 07:44:26;;;;;;;8.50;2.20;;;13.00;14.40;;;;;;5051137;28;20184;-74
2022/09/19 07:49:36;;;;;;;6.13;2.17;;;13.10;10.80;;;;;;5044704;28;20187;-75
2022/09/19 07:52:01;;;;;;;9.20;2.80;;;13.00;5.80;;;;;;5049960;28;20546;-76
2022/09/19 07:54:27;;;;;;;3.33;2.00;;;13.10;12.00;;;;;;5041821;28;20250;-75
2022/09/19 07:56:52;;;;;;;5.80;2.63;;;13.20;1.00;;;;;;5039096;28;20197;-75
2022/09/19 07:59:18;;;;;;;8.97;2.20;;;13.30;5.00;;;;;;5046913;28;20184;-76
2022/09/19 08:01:43;;;;;;;5.27;1.90;;;13.40;2.70;;;;;;5048642;28;20257;-76
2022/09/19 08:04:09;;;;;;;7.97;2.50;;;13.70;1.10;;;;;;5045940;28;20553;-76
2022/09/19 08:06:34;;;;;;;4.70;1.77;;;14.00;1.00;;;;;;5039342;28;20229;-76
2022/09/19 08:09:00;;;;;;;10.13;2.77;;;14.10;1.00;;;;;;5049790;28;20606;-75
2022/09/19 08:11:25;;;;;;;6.73;2.40;;;14.20;1.00;;;;;;5041142;28;20209;-75
2022/09/19 08:13:51;;;;;;;6.00;2.03;;;14.20;1.00;;;;;;5041017;28;20246;-76
2022/09/19 08:16:17;;;;;;;4.17;1.80;;;14.40;1.00;;;;;;5050374;28;20200;-75
2022/09/19 08:18:42;;;;;;;12.53;2.87;;;14.50;1.00;;;;;;5048004;28;20181;-75
2022/09/19 08:21:08;;;;;;;5.83;1.97;;;14.60;1.00;;;;;;5044699;28;20235;-75
2022/09/19 08:23:33;;;;;;;8.83;2.10;;;14.80;1.00;;;;;;5046618;28;20186;-75
2022/09/19 08:26:02;;;;;;;6.40;1.97;;;15.30;1.00;;;;;;5044619;28;20649;-77
2022/09/19 08:28:29;;;;;;;6.37;2.03;;;15.70;1.00;;;;;;5046056;28;20185;-76
2022/09/19 08:30:58;;;;;;;10.20;2.10;;;16.00;1.00;;;;;;5049110;28;20792;-74
2022/09/19 08:33:24;;;;;;;6.80;1.90;;;15.70;1.00;;;;;;5040417;28;20929;-76
2022/09/19 08:35:52;;;;;;;5.97;1.90;;;15.80;1.00;;;;;;5049882;28;20432;-75
2022/09/19 08:38:18;;;;;;;8.90;2.63;;;15.90;1.00;;;;;;5049704;28;20212;-75
2022/09/19 08:41:18;;;;;;;12.17;2.50;;;16.00;1.00;;;;;;5047318;28;20435;-76
2022/09/19 08:44:02;;;;;;;4.40;1.80;;;15.80;1.00;;;;;;5040112;28;20554;-76
2022/09/19 08:46:36;;;;;;;6.20;2.00;;;15.70;1.00;;;;;;5035300;28;20448;-74
2022/09/19 08:49:19;;;;;;;8.07;1.90;;;15.90;1.00;;;;;;5034951;28;20429;-75
2022/09/19 08:52:13;;;;;;;9.60;2.50;;;16.30;1.00;;;;;;5037387;28;20487;-76
2022/09/19 08:54:43;;;;;;;11.50;2.30;;;16.60;1.00;;;;;;5031765;28;20446;-76
2022/09/19 08:57:19;;;;;;;5.13;2.33;;;17.00;1.00;;;;;;5044248;28;20482;-76
2022/09/19 08:59:45;;;;;;;7.37;2.10;;;16.80;1.00;;;;;;5049205;28;20435;-75
2022/09/19 09:02:48;;;;;;;6.77;2.30;;;16.50;1.00;;;;;;5041356;28;20497;-76
2022/09/19 09:05:15;;;;;;;10.97;2.40;;;16.40;1.00;;;;;;5032006;28;20795;-74
2022/09/19 09:08:13;;;;;;;8.10;3.07;;;16.40;1.00;;;;;;5036057;28;20457;-74
2022/09/19 09:10:53;;;;;;;6.80;2.40;;;16.60;1.00;;;;;;5041855;28;20841;-74
2022/09/19 09:13:51;;;;;;;9.13;2.63;;;16.70;1.00;;;;;;5028636;28;20520;-75
2022/09/19 09:16:41;;;;;;;7.47;1.87;;;16.60;1.00;;;;;;5036244;28;20420;-75
2022/09/19 09:19:36;;;;;;;10.87;2.40;;;16.40;1.00;;;;;;5037195;28;20452;-75
2022/09/19 09:22:02;;;;;;;18.77;5.50;;;16.40;1.00;;;;;;5048435;28;20436;-76
2022/09/19 09:24:36;;;;;;;13.97;4.10;;;16.70;1.00;;;;;;5044883;28;20459;-76
2022/09/19 09:27:08;;;;;;;8.57;3.53;;;17.20;1.00;;;;;;5036713;28;20207;-77
2022/09/19 09:29:40;;;;;;;5.07;2.40;;;17.50;1.00;;;;;;5041691;28;20439;-75
2022/09/19 09:32:21;;;;;;;9.63;2.20;;;17.50;1.00;;;;;;5036287;28;20478;-75
2022/09/19 09:35:12;;;;;;;6.07;2.07;;;17.60;1.00;;;;;;5045151;28;20918;-76
2022/09/19 09:37:44;;;;;;;6.20;1.87;;;17.70;1.00;;;;;;5040708;28;20861;-75
2022/09/19 09:40:13;;;;;;;8.80;2.27;;;17.40;1.00;;;;;;5043577;28;20990;-75
2022/09/19 09:42:55;;;;;;;6.87;2.57;;;17.60;1.00;;;;;;5041840;28;20513;-75
2022/09/19 09:45:29;;;;;;;5.13;2.13;;;17.90;1.00;;;;;;5035900;28;20481;-76
2022/09/19 09:48:16;;;;;;;6.97;2.30;;;18.10;1.00;;;;;;5038866;28;20454;-76
2022/09/19 09:50:48;;;;;;;4.77;2.40;;;18.30;1.00;;;;;;5039735;28;20420;-75
2022/09/19 09:53:22;;;;;;;5.10;2.13;;;18.40;1.00;;;;;;5048665;28;20918;-75
2022/09/19 09:58:52;;;;;;;6.67;2.70;;;18.40;1.00;;;;;;5043030;28;20516;-76
2022/09/19 10:04:30;;;;;;;6.17;2.97;;;18.20;1.00;;;;;;5039810;28;20852;-76
2022/09/19 10:07:13;;;;;;;8.47;2.13;;;18.40;1.00;;;;;;5047949;28;20488;-75
2022/09/19 10:09:45;;;;;;;7.30;2.53;;;18.60;1.00;;;;;;5046151;28;20419;-76
2022/09/19 10:12:16;;;;;;;5.13;2.50;;;18.70;1.00;;;;;;5047938;28;20512;-76
2022/09/19 10:14:44;;;;;;;6.90;2.43;;;18.20;1.00;;;;;;5041060;28;20459;-75
2022/09/19 10:17:10;;;;;;;6.90;2.40;;;17.50;1.00;;;;;;5043575;28;20444;-76
2022/09/19 10:19:45;;;;;;;6.90;2.90;;;17.00;1.00;;;;;;5041356;28;20420;-75
2022/09/19 10:22:14;;;;;;;7.50;2.53;;;16.70;1.00;;;;;;5047952;28;20439;-76
2022/09/19 10:24:53;;;;;;;6.20;2.40;;;16.60;1.00;;;;;;5041854;28;20436;-76
2022/09/19 10:27:30;;;;;;;5.60;1.80;;;16.50;1.00;;;;;;5039146;28;20460;-76
2022/09/19 10:29:59;;;;;;;10.57;2.30;;;16.50;1.00;;;;;;5051019;28;20431;-74
2022/09/19 10:32:31;;;;;;;5.43;2.03;;;16.40;1.00;;;;;;5055639;28;20503;-75
2022/09/19 10:34:57;;;;;;;6.70;2.13;;;16.60;1.00;;;;;;5049806;28;20404;-74
2022/09/19 10:37:26;;;;;;;6.10;1.97;;;16.80;1.00;;;;;;5040719;28;20466;-74
2022/09/19 10:39:57;;;;;;;4.60;1.90;;;16.90;1.00;;;;;;5039232;28;20248;-75
2022/09/19 10:42:35;;;;;;;7.20;2.13;;;16.80;1.00;;;;;;5058652;28;20430;-76
2022/09/19 10:45:13;;;;;;;4.10;1.90;;;16.40;1.00;;;;;;5048953;28;20496;-75
2022/09/19 10:47:38;;;;;;;5.90;2.67;;;16.20;1.00;;;;;;5046319;28;20463;-74
2022/09/19 10:50:05;;;;;;;5.27;2.07;;;15.90;1.00;;;;;;5043443;28;20482;-76
2022/09/19 10:52:33;;;;;;;9.10;2.30;;;15.50;1.00;;;;;;5040768;28;20213;-76
2022/09/19 10:55:01;;;;;;;10.87;2.40;;;15.40;1.00;;;;;;5049798;28;20411;-76
2022/09/19 10:57:44;;;;;;;9.70;2.50;;;15.20;1.00;;;;;;5043327;28;20445;-76
2022/09/19 11:00:25;;;;;;;8.63;2.50;;;15.20;1.00;;;;;;5039565;28;20424;-75
2022/09/19 11:03:00;;;;;;;9.40;2.97;;;14.90;1.00;;;;;;5042193;28;20430;-75
2022/09/19 11:05:29;;;;;;;9.03;2.60;;;14.40;1.00;;;;;;5044874;28;20809;-75
2022/09/19 11:07:56;;;;;;;6.30;2.30;;;14.10;1.00;;;;;;5043453;28;20555;-75
2022/09/19 11:10:33;;;;;;;7.90;2.50;;;14.00;1.00;;;;;;5035777;28;20424;-76
2022/09/19 11:13:28;;;;;;;9.67;2.20;;;14.00;1.00;;;;;;5036467;28;20529;-75
2022/09/19 11:16:17;;;;;;;7.77;1.93;;;14.00;1.00;;;;;;5033000;28;20515;-75
2022/09/19 11:18:59;;;;;;;7.83;2.43;;;14.10;1.00;;;;;;5045144;28;20436;-75
2022/09/19 11:21:45;;;;;;;7.03;2.40;;;14.40;1.00;;;;;;5050582;28;20653;-75
2022/09/19 11:24:36;;;;;;;5.50;2.47;;;14.60;1.00;;;;;;5041613;28;20438;-75
2022/09/19 11:27:22;;;;;;;8.27;2.67;;;15.10;1.00;;;;;;5042163;28;20721;-75
2022/09/19 11:30:11;;;;;;;10.10;2.47;;;16.60;1.00;;;;;;5041371;28;20463;-75
2022/09/19 11:33:00;;;;;;;8.60;2.27;;;18.90;1.00;;;;;;5039007;28;20482;-75
2022/09/19 11:35:28;;;;;;;8.03;2.70;;;20.20;1.00;;;;;;5050643;28;20431;-75
2022/09/19 11:38:10;;;;;;;10.53;2.53;;;20.40;1.00;;;;;;5045366;28;21031;-76
2022/09/19 11:40:59;;;;;;;4.50;2.50;;;20.20;1.00;;;;;;5041317;28;20739;-76
2022/09/19 11:43:29;;;;;;;9.30;2.53;;;19.50;1.00;;;;;;5046100;28;20511;-76
2022/09/19 11:46:08;;;;;;;5.60;2.30;;;19.10;1.00;;;;;;5047248;28;20470;-77
2022/09/19 11:49:08;;;;;;;6.83;2.47;;;19.10;1.00;;;;;;5046733;28;20488;-75
2022/09/19 11:51:49;;;;;;;7.07;2.47;;;18.70;1.00;;;;;;5042955;28;20465;-75
2022/09/19 11:54:22;;;;;;;7.37;3.00;;;18.00;1.00;;;;;;5041631;28;20435;-76
2022/09/19 11:57:10;;;;;;;10.00;2.70;;;17.40;1.00;;;;;;5037032;28;20522;-76
2022/09/19 12:00:00;;;;;;;7.10;2.10;;;17.20;1.00;;;;;;5038156;28;20939;-76
2022/09/19 12:02:58;;;;;;;4.77;2.10;;;17.20;1.00;;;;;;5041117;28;20421;-76
2022/09/19 12:06:01;;;;;;;9.30;2.37;;;17.40;1.00;;;;;;5034333;28;21051;-75
2022/09/19 12:08:30;;;;;;;8.40;2.47;;;17.80;1.00;;;;;;5046862;28;20469;-77
2022/09/19 12:11:13;;;;;;;5.80;2.50;;;18.70;1.00;;;;;;5046374;28;20435;-76
2022/09/19 12:13:48;;;;;;;9.17;2.47;;;18.90;1.00;;;;;;5044118;28;20972;-76
2022/09/19 12:16:25;;;;;;;10.63;2.67;;;18.80;1.00;;;;;;5038690;28;20435;-77
2022/09/19 12:18:58;;;;;;;7.30;2.63;;;18.70;1.00;;;;;;5039662;28;20432;-76
2022/09/19 12:21:32;;;;;;;9.23;2.77;;;18.50;1.00;;;;;;5046623;28;20447;-76
2022/09/19 12:26:55;;;;;;;7.13;2.30;;;18.80;1.00;;;;;;5045739;28;20842;-76
2022/09/19 12:29:32;;;;;;;7.07;2.30;;;19.70;1.00;;;;;;5044174;28;20439;-75
2022/09/19 12:32:04;;;;;;;5.73;2.20;;;21.30;1.00;;;;;;5044153;28;20840;-77
2022/09/19 12:34:40;;;;;;;5.17;2.07;;;23.50;1.00;;;;;;5042803;28;20439;-77
2022/09/19 12:37:13;;;;;;;4.30;1.90;;;24.90;1.00;;;;;;5039853;28;20504;-77
2022/09/19 12:39:46;;;;;;;6.47;2.03;;;25.40;1.00;;;;;;5045793;28;20441;-76
2022/09/19 12:42:32;;;;;;;5.00;1.80;;;26.40;1.00;;;;;;5042605;28;20441;-77
2022/09/19 12:45:14;;;;;;;5.77;1.63;;;28.90;1.00;;;;;;5043164;28;20431;-77
2022/09/19 12:48:04;;;;;;;5.03;1.67;;;31.20;1.00;;;;;;5046574;28;20451;-78
2022/09/19 12:50:36;;;;;;;4.60;1.67;;;31.30;1.00;;;;;;5046726;28;20192;-78
2022/09/19 12:53:54;;;;;;;10.63;1.87;;;31.10;1.00;;;;;;5029938;28;20204;-78
2022/09/19 12:56:32;;;;;;;5.72;1.90;;;32.40;1.00;;;;;;5037394;28;20211;-77
2022/09/19 12:59:06;;;;;;;4.10;1.90;;;31.60;1.00;;;;;;5043923;28;20643;-78
2022/09/19 13:01:47;;;;;;;5.90;2.10;;;28.90;1.00;;;;;;5041168;28;20246;-77
2022/09/19 13:04:40;;;;;;;6.10;1.80;;;26.40;1.00;;;;;;5041569;28;20215;-77
2022/09/19 13:07:13;;;;;;;8.67;2.40;;;24.60;1.00;;;;;;5042908;28;20486;-76
2022/09/19 13:10:04;;;;;;;6.80;2.40;;;22.80;1.00;;;;;;5035828;28;21020;-77
2022/09/19 13:13:00;;;;;;;6.27;1.87;;;21.60;1.00;;;;;;5047239;28;20463;-77
2022/09/19 13:15:37;;;;;;;3.43;1.40;;;20.50;1.00;;;;;;5051647;28;20426;-77
2022/09/19 13:23:38;;;;;;;8.23;2.50;;;17.10;1.00;;;;;;5045155;28;20442;-76
2022/09/19 13:26:16;;;;;;;4.50;2.20;;;16.50;1.00;;;;;;5041269;28;20426;-77
2022/09/19 13:28:49;;;;;;;6.03;1.70;;;16.20;1.00;;;;;;5047410;28;20554;-76
2022/09/19 13:31:17;;;;;;;2.90;1.50;;;15.90;1.00;;;;;;5044705;28;20915;-76
2022/09/19 13:33:52;;;;;;;4.30;1.33;;;15.40;1.00;;;;;;5045439;28;20424;-76
2022/09/19 13:36:24;;;;;;;2.87;1.40;;;15.00;1.00;;;;;;5047446;28;20954;-75
2022/09/19 13:38:55;;;;;;;3.03;1.30;;;14.70;1.00;;;;;;5047910;28;20427;-76
2022/09/19 13:41:41;;;;;;;2.83;1.30;;;14.40;1.00;;;;;;5031514;28;20424;-76
2022/09/19 13:44:12;;;;;;;3.00;1.30;;;14.30;1.00;;;;;;5039117;28;20510;-76
2022/09/19 13:46:58;;;;;;;4.13;1.67;;;14.20;1.00;;;;;;5040522;28;20963;-77
2022/09/19 13:49:41;;;;;;;2.50;1.60;;;14.30;1.00;;;;;;5036462;28;20525;-77
2022/09/19 13:52:15;;;;;;;3.00;1.70;;;14.40;1.00;;;;;;5045673;28;20855;-77